Airports Spain Tenerife South Airport

Tenerife South Airport (GCTS / TFS)

Facts about Tenerife South Airport

Name Tenerife South Airport
City Tenerife
Country Spain
ICAO code GCTS
IATA code TFS
Elevation 63.7032 meters (209 feet)

Weather

METAR

Metar data retrieved Friday, 19 July 2024 at 23:25 UTC (7 minutes ago)

GCTS 192300Z 25004KT 210V280 CAVOK 24/20 Q1018 WS R07 NOSIG

Live traffic

Navigraph Charts (account required)